Flight Track Log - Related Links

Times and Time Zones

All times are in EDT time to prevent confusion due to time zone crossing. See the EJA930 flight status page for this flight to view local times or setup timezone preferences in your user account.

Time Position Orientation Groundspeed Altitude Reporting Facility
EDT Latitude Longitude Course Direction KTS MPH feet Rate Location/Type
Wed 05:46:58 PM 41.4194 -81.8375 North 176 203 1,800  Level Cleveland Center
Wed 05:47:30 PM 41.4508 -81.8353 North 203 234 3,700 3,123 Climbing Cleveland Center
Wed 05:48:11 PM 41.4669 -81.8856 293° West 243 280 5,600 2,436 Climbing Cleveland Center
Wed 05:49:11 PM 41.4428 -81.9819 252° West 287 330 7,800 2,083 Climbing Cleveland Center
Wed 05:50:12 PM 41.4164 -82.0867 251° West 297 342 9,800 1,640 Climbing Cleveland Center
Wed 05:51:30 PM 41.3811 -82.2325 252° West 344 396 11,600 1,217 Climbing Cleveland Center
Wed 05:52:30 PM 41.3544 -82.3425 252° West 344 396 12,600 1,000 Climbing Cleveland Center
Wed 05:53:30 PM 41.3189 -82.4714 250° West 358 412 13,600 1,000 Climbing Cleveland Center
Wed 05:54:30 PM 41.2958 -82.6061 257° West 370 426 14,600 1,000 Climbing Cleveland Center
Wed 05:55:30 PM 41.2767 -82.7439 260° West 383 441 15,600 1,000 Climbing Cleveland Center
Wed 05:56:30 PM 41.2592 -82.8842 261° West 388 447 16,600 1,000 Climbing Cleveland Center
Wed 05:57:30 PM 41.2564 -83.0247 269° West 388 447 17,600 950 Climbing Cleveland Center
Wed 05:58:30 PM 41.2953 -83.1533 292° West 377 434 18,500 1,250 Climbing Cleveland Center
Wed 05:59:30 PM 41.3400 -83.2964 293° West 369 425 20,100 1,550 Climbing Cleveland Center
Wed 06:00:30 PM 41.3806 -83.4225 293° West 369 425 21,600 1,400 Climbing Cleveland Center
Wed 06:01:30 PM 41.4211 -83.5489 293° West 374 430 22,900 1,200 Climbing Cleveland Center
Wed 06:02:30 PM 41.4511 -83.6833 287° West 379 436 24,000 950 Climbing Cleveland Center
Wed 06:03:30 PM 41.4578 -83.8111 274° West 388 447 24,800 1,000 Climbing Cleveland Center
Wed 06:04:30 PM 41.4619 -83.9583 272° West 394 453 26,000 1,200 Climbing Cleveland Center
Wed 06:05:30 PM 41.4681 -84.1056 273° West 394 453 27,200 1,138 Climbing Cleveland Center
Wed 06:06:26 PM 41.4753 -84.2344 274° West 403 464 28,200 966 Climbing Chicago Center
Wed 06:07:28 PM 41.4803 -84.3844 273° West 404 465 29,100 919 Climbing Chicago Center
Wed 06:08:30 PM 41.4869 -84.5697 273° West 415 478 30,100 919 Climbing Chicago Center
Wed 06:09:32 PM 41.4919 -84.7292 272° West 427 491 31,000 823 Climbing Chicago Center
Wed 06:10:34 PM 41.4969 -84.8900 272° West 432 497 31,800 768 Climbing Chicago Center
Wed 06:11:37 PM 41.5014 -85.0539 272° West 438 504 32,600 768 Climbing Chicago Center
Wed 06:12:39 PM 41.5047 -85.2225 272° West 447 514 33,400 871 Climbing Chicago Center
Wed 06:13:41 PM 41.5053 -85.3983 270° West 460 529 34,400 1,258 Climbing Chicago Center
Wed 06:14:43 PM 41.5128 -85.5739 273° West 463 533 36,000 1,500 Climbing Chicago Center
Wed 06:15:45 PM 41.5178 -85.7356 272° West 436 502 37,500 968 Climbing Chicago Center
Wed 06:16:47 PM 41.5217 -85.9289 272° West 432 497 38,000 242 Climbing Chicago Center
Wed 06:17:49 PM 41.5258 -86.1011 272° West 456 525 38,000  Level Chicago Center
Wed 06:18:51 PM 41.5289 -86.2772 271° West 470 541 38,000  Level Chicago Center
Wed 06:19:53 PM 41.5322 -86.4550 271° West 479 551 38,000  Level Chicago Center
Wed 06:20:55 PM 41.5344 -86.6328 271° West 476 548 38,000  Level Chicago Center
Wed 06:21:58 PM 41.5372 -86.8342 271° West 476 548 38,000  Level Chicago Center
Wed 06:23:00 PM 41.5389 -87.0117 271° West 479 551 38,000  Level Chicago Center
Wed 06:24:02 PM 41.5408 -87.1881 271° West 477 549 38,000  Level Chicago Center
Wed 06:25:04 PM 41.5422 -87.3658 271° West 481 554 38,000  Level Chicago Center
Wed 06:26:06 PM 41.5444 -87.5772 271° West 479 551 38,000 97 Level Chicago Center
Wed 06:27:08 PM 41.5461 -87.7533 271° West 484 557 38,200 532 Climbing Chicago Center
Wed 06:28:10 PM 41.5472 -87.9244 271° West 473 544 39,100 871 Climbing Chicago Center
Wed 06:29:12 PM 41.5478 -88.1267 270° West 469 540 40,000 435 Climbing Chicago Center
Wed 06:30:14 PM 41.5472 -88.2989 270° West 476 548 40,000  Level Chicago Center
Wed 06:31:16 PM 41.5467 -88.4728 270° West 476 548 40,000  Level Chicago Center
Wed 06:32:18 PM 41.5472 -88.6489 270° West 480 552 40,000  Level Chicago Center
Wed 06:33:21 PM 41.5472 -88.8261 270° West 482 555 40,000  Level Chicago Center
Wed 06:34:23 PM 41.5481 -89.0392 270° West 483 556 40,000  Level Chicago Center
Wed 06:35:25 PM 41.5478 -89.2175 270° West 485 558 40,000  Level Chicago Center
Wed 06:36:27 PM 41.5478 -89.3981 270° West 488 562 40,000  Level Chicago Center
Wed 06:37:29 PM 41.5483 -89.5961 270° West 485 558 40,000  Level Chicago Center
Wed 06:38:31 PM 41.5461 -89.7767 269° West 489 563 40,000  Level Chicago Center
Wed 06:39:33 PM 41.5450 -89.9553 270° West 486 559 40,000  Level Chicago Center
Wed 06:40:35 PM 41.5444 -90.1339 270° West 486 559 40,000  Level Chicago Center
Wed 06:41:37 PM 41.5411 -90.3150 269° West 492 566 40,000  Level Chicago Center
Wed 06:42:39 PM 41.5378 -90.5314 269° West 488 562 40,000  Level Chicago Center
Wed 06:43:42 PM 41.5358 -90.6969 269° West 484 557 40,000  Level Chicago Center
Wed 06:44:44 PM 41.5328 -90.8781 269° West 490 564 40,000  Level Chicago Center
Wed 06:45:46 PM 41.5286 -91.0933 269° West 488 562 40,000  Level Chicago Center
Wed 06:46:48 PM 41.5258 -91.2717 269° West 486 559 40,000  Level Chicago Center
Wed 06:47:50 PM 41.5225 -91.4517 269° West 488 562 40,000  Level Chicago Center
Wed 06:48:53 PM 41.5178 -91.6300 268° West 486 559 40,000  Level Chicago Center
Wed 06:49:54 PM 41.5000 -91.8081 262° West 487 560 40,000  Level Chicago Center
Wed 06:50:56 PM 41.4806 -92.0206 263° West 485 558 40,000  Level Chicago Center
Wed 06:51:58 PM 41.4636 -92.1983 263° West 487 560 40,000  Level Chicago Center
Wed 06:53:01 PM 41.4461 -92.3733 262° West 483 556 40,000  Level Chicago Center
Wed 06:54:03 PM 41.4281 -92.5467 262° West 482 555 40,000  Level Chicago Center
Wed 06:55:05 PM 41.4103 -92.7208 262° West 481 554 40,000  Level Chicago Center
Wed 06:56:07 PM 41.3894 -92.9289 262° West 480 552 40,000  Level Chicago Center
Wed 06:57:21 PM 41.3664 -93.1394 262° West 481 554 40,000  Level Minneapolis Center
Wed 06:58:23 PM 41.3475 -93.3153 262° West 484 557 40,000  Level Minneapolis Center
Wed 06:59:25 PM 41.3289 -93.4900 262° West 484 557 40,000  Level Minneapolis Center
Wed 07:00:27 PM 41.3083 -93.6936 262° West 474 545 40,000  Level Minneapolis Center
Wed 07:01:29 PM 41.2881 -93.8667 261° West 477 549 40,000  Level Minneapolis Center
Wed 07:02:32 PM 41.2661 -94.0450 261° West 484 557 40,000  Level Minneapolis Center
Wed 07:03:34 PM 41.2453 -94.2186 261° West 486 559 40,000  Level Minneapolis Center
Wed 07:04:36 PM 41.2275 -94.3919 262° West 478 550 40,000  Level Minneapolis Center
Wed 07:05:38 PM 41.2028 -94.6028 261° West 481 554 40,000  Level Minneapolis Center
Wed 07:06:40 PM 41.1806 -94.7789 261° West 483 556 40,000  Level Minneapolis Center
Wed 07:07:42 PM 41.1592 -94.9528 261° West 480 552 40,000  Level Minneapolis Center
Wed 07:08:44 PM 41.1386 -95.1250 261° West 475 547 40,000  Level Minneapolis Center
Wed 07:09:46 PM 41.1161 -95.2994 260° West 477 549 40,000  Level Minneapolis Center
Wed 07:10:48 PM 41.0928 -95.4742 260° West 479 551 40,000  Level Minneapolis Center
Wed 07:11:51 PM 41.0692 -95.6467 260° West 476 548 40,000  Level Minneapolis Center
Wed 07:12:53 PM 41.0408 -95.8558 260° West 475 547 40,000  Level Minneapolis Center
Wed 07:13:55 PM 41.0186 -96.0339 261° West 481 554 40,000  Level Minneapolis Center
Wed 07:14:57 PM 40.9947 -96.2111 260° West 484 557 40,000  Level Minneapolis Center
Wed 07:15:59 PM 40.9717 -96.3867 260° West 483 556 40,000  Level Minneapolis Center
Wed 07:17:01 PM 40.9481 -96.5622 260° West 483 556 40,000  Level Minneapolis Center
Wed 07:18:03 PM 40.9239 -96.7383 260° West 485 558 40,000  Level Minneapolis Center
Wed 07:19:05 PM 40.9056 -96.9172 262° West 486 559 40,000  Level Minneapolis Center
Wed 07:20:07 PM 40.8850 -97.1317 263° West 489 563 40,000  Level Minneapolis Center
Wed 07:21:10 PM 40.8675 -97.3117 263° West 491 565 40,000  Level Minneapolis Center
Wed 07:22:12 PM 40.8500 -97.4947 263° West 494 568 40,000  Level Minneapolis Center
Wed 07:23:14 PM 40.8317 -97.6747 262° West 495 570 40,000  Level Minneapolis Center
Wed 07:24:16 PM 40.8136 -97.8553 263° West 495 570 40,000  Level Minneapolis Center
Wed 07:25:18 PM 40.7950 -98.0358 262° West 495 570 40,000  Level Minneapolis Center
Wed 07:26:20 PM 40.7756 -98.2169 262° West 496 571 40,000  Level Minneapolis Center
Wed 07:27:22 PM 40.7522 -98.4331 262° West 494 568 40,000  Level Minneapolis Center
Wed 07:28:24 PM 40.7319 -98.6144 262° West 495 570 40,000  Level Minneapolis Center
Wed 07:29:26 PM 40.7114 -98.7981 262° West 499 574 40,000  Level Minneapolis Center
Wed 07:30:29 PM 40.6906 -98.9803 261° West 499 574 40,000  Level Minneapolis Center
Wed 07:31:31 PM 40.6700 -99.1639 262° West 501 577 40,000  Level Minneapolis Center
Wed 07:32:10 PM 40.6578 -99.2719 262° West 499 574 40,000  Level Denver Center
Wed 07:33:12 PM 40.6364 -99.4556 261° West 504 580 40,000  Level Denver Center
Wed 07:34:15 PM 40.6106 -99.6744 261° West 504 580 40,000  Level Denver Center
Wed 07:35:17 PM 40.5883 -99.8572 261° West 507 583 40,000  Level Denver Center
Wed 07:36:19 PM 40.5650 -100.0489 261° West 509 586 40,000  Level Denver Center
Wed 07:37:21 PM 40.5428 -100.2228 261° West 504 580 40,000  Level Denver Center
Wed 07:38:23 PM 40.5167 -100.4281 261° West 507 583 40,000  Level Denver Center
Wed 07:39:25 PM 40.4936 -100.6033 260° West 505 581 40,000  Level Denver Center
Wed 07:40:27 PM 40.4711 -100.7794 261° West 506 582 40,000  Level Denver Center
Wed 07:41:41 PM 40.4447 -100.9836 260° West 505 581 40,000  Level Denver Center
Wed 07:42:43 PM 40.4136 -101.2172 260° West 508 585 40,000  Level Denver Center
Wed 07:43:46 PM 40.3894 -101.3906 260° West 505 581 40,000  Level Denver Center
Wed 07:44:48 PM 40.3611 -101.5928 260° West 505 581 40,000  Level Denver Center
Wed 07:45:50 PM 40.3375 -101.7653 260° West 504 580 40,000  Level Denver Center
Wed 07:46:52 PM 40.3125 -101.9361 259° West 500 575 40,000  Level Denver Center
Wed 07:47:54 PM 40.2836 -102.1381 259° West 506 582 40,000  Level Denver Center
Wed 07:48:56 PM 40.2581 -102.3092 259° West 501 577 40,000  Level Denver Center
Wed 07:49:58 PM 40.2283 -102.5114 259° West 507 583 40,000  Level Denver Center
Wed 07:51:00 PM 40.2022 -102.6856 259° West 513 590 40,000  Level Denver Center
Wed 07:52:02 PM 40.1753 -102.8686 259° West 515 593 40,000  Level Denver Center
Wed 07:53:04 PM 40.1422 -103.0883 259° West 515 593 40,000  Level Denver Center
Wed 07:54:06 PM 40.1133 -103.2692 258° West 512 589 40,000  Level Denver Center
Wed 07:55:08 PM 40.0856 -103.4519 259° West 513 590 40,000  Level Denver Center
Wed 07:56:10 PM 40.0558 -103.6328 258° West 512 589 40,000  Level Denver Center
Wed 07:57:12 PM 40.0272 -103.8178 259° West 525 604 40,000  Level Denver Center
Wed 07:58:14 PM 39.9978 -103.9983 258° West 513 590 40,000  Level Denver Center
Wed 07:59:16 PM 39.9614 -104.2186 258° West 521 600 40,000  Level Denver Center
Wed 08:00:18 PM 39.9319 -104.3989 258° West 515 593 40,000  Level Denver Center
Wed 08:01:21 PM 39.9039 -104.5769 258° West 509 586 40,000 48 Level Denver Center
Wed 08:02:23 PM 39.8697 -104.7561 256° West 516 594 40,100 629 Climbing Denver Center
Wed 08:03:25 PM 39.8297 -104.9678 256° West 506 582 41,300 1,016 Climbing Denver Center
Wed 08:04:27 PM 39.7936 -105.1458 255° West 519 597 42,200 823 Climbing Denver Center
Wed 08:05:29 PM 39.7603 -105.3131 256° West 482 555 43,000 387 Climbing Denver Center
Wed 08:06:31 PM 39.7258 -105.4850 255° West 495 570 43,000  Level Denver Center
Wed 08:07:33 PM 39.6917 -105.6597 256° West 503 579 43,000  Level Denver Center
Wed 08:08:35 PM 39.6514 -105.8653 256° West 488 562 43,000  Level Denver Center
Wed 08:09:37 PM 39.6161 -106.0411 255° West 500 575 43,000  Level Denver Center
Wed 08:10:39 PM 39.5781 -106.2261 255° West 503 579 43,000  Level Denver Center
Wed 08:11:41 PM 39.5425 -106.4011 255° West 505 581 43,000  Level Denver Center
Wed 08:12:43 PM 39.4922 -106.5542 247° West 495 570 43,000  Level Denver Center
Wed 08:13:45 PM 39.4256 -106.7381 245° Southwest 512 589 43,000  Level Denver Center
Wed 08:14:47 PM 39.3978 -106.9019 258° West 497 572 43,000  Level Denver Center
Wed 08:15:49 PM 39.3750 -107.1006 262° West 501 577 43,000  Level Denver Center
Wed 08:16:51 PM 39.3542 -107.2681 261° West 497 572 43,000  Level Denver Center
Wed 08:17:53 PM 39.3300 -107.4636 261° West 494 568 43,000  Level Denver Center
Wed 08:18:56 PM 39.3083 -107.6331 261° West 496 571 43,000  Level Denver Center
Wed 08:19:58 PM 39.2836 -107.8292 261° West 496 571 43,000  Level Denver Center
Wed 08:21:00 PM 39.2622 -107.9972 261° West 493 567 43,000  Level Denver Center
Wed 08:22:02 PM 39.2372 -108.1928 261° West 493 567 43,000  Level Denver Center
Wed 08:23:04 PM 39.2153 -108.3594 260° West 506 582 43,000  Level Denver Center
Wed 08:24:06 PM 39.1931 -108.5308 261° West 504 580 43,000  Level Denver Center
Wed 08:25:08 PM 39.1658 -108.7267 260° West 493 567 43,000  Level Denver Center
Wed 08:26:10 PM 39.1431 -108.8939 260° West 492 566 43,000  Level Denver Center
Wed 08:27:12 PM 39.1161 -109.0883 260° West 491 565 43,000  Level Denver Center
Wed 08:28:14 PM 39.0931 -109.2539 260° West 489 563 43,000  Level Denver Center
Wed 08:29:16 PM 39.0669 -109.4469 260° West 488 562 43,000  Level Denver Center
Wed 08:30:18 PM 39.0428 -109.6106 259° West 486 559 43,000  Level Denver Center
Wed 08:31:20 PM 39.0214 -109.7753 261° West 486 559 43,000  Level Denver Center
Wed 08:32:10 PM 38.9964 -109.9392 259° West 488 562 43,000  Level Salt Center
Wed 08:33:12 PM 38.9714 -110.1017 259° West 486 559 43,000  Level Salt Center
Wed 08:34:14 PM 38.9444 -110.2925 260° West 486 559 43,000  Level Salt Center
Wed 08:35:16 PM 38.9197 -110.4553 259° West 486 559 43,000  Level Salt Center
Wed 08:36:17 PM 38.8956 -110.6200 259° West 490 564 43,000  Level Salt Center
Wed 08:37:19 PM 38.8650 -110.8072 258° West 482 555 43,000  Level Salt Center
Wed 08:38:21 PM 38.8422 -110.9608 259° West 484 557 43,000  Level Salt Center
Wed 08:39:23 PM 38.8106 -111.1636 259° West 485 558 43,000  Level Salt Center
Wed 08:40:25 PM 38.7833 -111.3308 258° West 482 555 43,000  Level Salt Center
Wed 08:41:26 PM 38.7569 -111.5000 259° West 484 557 43,000  Level Salt Center
Wed 08:42:28 PM 38.7297 -111.6664 258° West 480 552 43,000  Level Salt Center
Wed 08:43:30 PM 38.7025 -111.8344 258° West 483 556 43,000  Level Salt Center
Wed 08:44:32 PM 38.6744 -111.9997 258° West 479 551 43,000  Level Salt Center
Wed 08:45:33 PM 38.6419 -112.1997 258° West 481 554 43,000  Level Salt Center
Wed 08:46:35 PM 38.6139 -112.3642 258° West 476 548 43,000  Level Salt Center
Wed 08:47:37 PM 38.5861 -112.5308 258° West 481 554 43,000  Level Salt Center
Wed 08:48:38 PM 38.5572 -112.6942 257° West 476 548 43,000  Level Salt Center
Wed 08:49:40 PM 38.5286 -112.8592 258° West 478 550 43,000  Level Salt Center
Wed 08:50:42 PM 38.5003 -113.0228 258° West 475 547 43,000  Level Salt Center
Wed 08:51:44 PM 38.4719 -113.1867 258° West 474 545 43,000  Level Salt Center
Wed 08:52:45 PM 38.4361 -113.3825 257° West 475 547 43,000  Level Salt Center
Wed 08:53:47 PM 38.4072 -113.5450 257° West 474 545 43,000  Level Salt Center
Wed 08:54:49 PM 38.3778 -113.7083 257° West 475 547 43,000  Level Salt Center
Wed 08:55:50 PM 38.3569 -113.8742 261° West 479 551 43,000  Level Salt Center
Wed 08:56:52 PM 38.3864 -114.0414 283° West 488 562 43,000  Level Salt Center
Wed 08:57:53 PM 38.4192 -114.2078 284° West 486 559 43,000  Level Salt Center
Wed 08:58:55 PM 38.4583 -114.4075 284° West 486 559 43,000  Level Salt Center
Wed 08:59:57 PM 38.4917 -114.5731 284° West 483 556 43,000  Level Salt Center
Wed 09:00:58 PM 38.5261 -114.7375 285° West 481 554 43,000  Level Salt Center
Wed 09:02:00 PM 38.5592 -114.9019 284° West 480 552 43,000  Level Salt Center
Wed 09:03:01 PM 38.5878 -115.0658 283° West 476 548 43,000  Level Salt Center
Wed 09:04:03 PM 38.5606 -115.2275 258° West 467 537 43,000  Level Salt Center
Wed 09:05:05 PM 38.5136 -115.3908 250° West 464 534 43,000  Level Salt Center
Wed 09:06:06 PM 38.4694 -115.5442 250° West 462 532 43,000  Level Salt Center
Wed 09:07:08 PM 38.4261 -115.6975 250° West 461 531 43,000  Level Salt Center
Wed 09:08:09 PM 38.3814 -115.8506 250° West 462 532 43,000  Level Salt Center
Wed 09:09:11 PM 38.3369 -116.0036 250° West 460 529 43,000  Level Salt Center
Wed 09:10:12 PM 38.2825 -116.1881 249° West 463 533 43,000  Level Salt Center
Wed 09:11:14 PM 38.2364 -116.3422 249° West 466 536 43,000  Level Salt Center
Wed 09:12:03 PM 38.2006 -116.4653 250° West 465 535 43,000  Level Oakland Center
Wed 09:13:04 PM 38.1558 -116.6172 250° West 462 532 43,000  Level Oakland Center
Wed 09:14:05 PM 38.1092 -116.7694 249° West 462 532 43,000  Level Oakland Center
Wed 09:15:07 PM 38.0628 -116.9228 249° West 462 532 43,000  Level Oakland Center
Wed 09:16:08 PM 38.0128 -117.0786 248° West 467 537 43,000  Level Oakland Center
Wed 09:17:09 PM 37.9578 -117.2319 246° West 467 537 43,000  Level Oakland Center
Wed 09:18:11 PM 37.9042 -117.3828 246° West 465 535 43,000  Level Oakland Center
Wed 09:19:12 PM 37.8522 -117.5314 246° West 461 531 43,000 -98 Level Oakland Center
Wed 09:20:14 PM 37.8144 -117.6881 253° West 462 532 42,800 -878 Descending Oakland Center
Wed 09:21:15 PM 37.7772 -117.8428 253° West 461 531 41,200 -1,770 Descending Oakland Center
Wed 09:22:16 PM 37.7406 -117.9950 253° West 456 525 39,200 -1,951 Descending Oakland Center
Wed 09:23:18 PM 37.7028 -118.1472 253° West 454 522 37,200 -2,195 Descending Oakland Center
Wed 09:24:19 PM 37.6578 -118.3319 253° West 458 527 34,700 -2,195 Descending Oakland Center
Wed 09:25:21 PM 37.6194 -118.4878 253° West 463 533 32,700 -2,000 Descending Oakland Center
Wed 09:26:22 PM 37.5783 -118.6511 252° West 484 557 30,600 -1,328 Descending Oakland Center
Wed 09:27:23 PM 37.5411 -118.8031 253° West 481 554 30,000 -293 Descending Oakland Center
Wed 09:28:25 PM 37.5003 -118.9611 252° West 477 549 30,000 -49 Level Oakland Center
Wed 09:29:26 PM 37.4611 -119.1158 252° West 468 539 29,900 -836 Descending Oakland Center
Wed 09:30:27 PM 37.4197 -119.2750 252° West 477 549 28,300 -1,951 Descending Oakland Center
Wed 09:31:29 PM 37.3717 -119.4639 252° West 474 545 25,900 -2,146 Descending Oakland Center
Wed 09:32:30 PM 37.3319 -119.6139 252° West 460 529 23,900 -1,918 Descending Oakland Center
Wed 09:33:31 PM 37.2931 -119.7661 252° West 459 528 22,000 -1,756 Descending Oakland Center
Wed 09:34:33 PM 37.2733 -119.9061 260° West 457 526 20,300 -1,024 Descending Oakland Center
Wed 09:35:34 PM 37.2547 -120.0856 263° West 436 502 19,900 -787 Descending Oakland Center
Wed 09:36:35 PM 37.2381 -120.2339 262° West 432 497 18,700 -1,366 Descending Oakland Center
Wed 09:37:37 PM 37.2186 -120.3825 261° West 432 497 17,100 -1,463 Descending Oakland Center
Wed 09:38:38 PM 37.1911 -120.5239 256° West 421 484 15,700 -1,721 Descending Oakland Center
Wed 09:39:39 PM 37.1608 -120.6656 255° West 421 484 13,600 -2,098 Descending Oakland Center
Wed 09:40:41 PM 37.1319 -120.8019 255° West 410 472 11,400 -1,805 Descending Oakland Center
Wed 09:41:42 PM 37.1039 -120.9356 255° West 395 455 9,900 -689 Descending Oakland Center
Wed 09:42:43 PM 37.0744 -121.0722 255° West 404 465 10,000 49 Climbing Oakland Center
Wed 09:43:44 PM 37.0414 -121.2175 254° West 402 463 10,000 -98 Level Oakland Center
Wed 09:44:46 PM 37.0172 -121.3264 254° West 324 373 9,800 -976 Descending Oakland Center
Wed 09:45:47 PM 36.9961 -121.4183 254° West 279 321 8,000 -885 Descending Oakland Center
Wed 09:46:48 PM 37.0203 -121.5075 289° West 291 335 8,000 -341 Level Oakland Center
Wed 09:47:50 PM 37.0769 -121.5814 314° West 295 339 7,300 -1,024 Descending Oakland Center
Wed 09:48:51 PM 37.1306 -121.6567 312° West 289 333 5,900 -1,377 Descending Oakland Center
Wed 09:49:52 PM 37.1806 -121.7306 310° West 285 328 4,500 -1,366 Descending Oakland Center
Wed 09:50:54 PM 37.2403 -121.7942 320° Northwest 250 288 3,100 -1,171 Descending Oakland Center
Wed 09:51:55 PM 37.2833 -121.8414 319° Northwest 223 257 2,100 -934 Descending Oakland Center
Wed 09:52:56 PM 37.3150 -121.8744 320° Northwest 177 204 1,200 -732 Descending Oakland Center
Wed 09:53:58 PM 37.3400 -121.9039 317° Northwest 141 162 600 9,171 Descending Oakland Center
Wed 09:54:59 PM 37.3642 -121.9308 318° Northwest 127 146 20,000 19,082 Climbing Oakland Center
Wed 09:56:00 PM 37.3627 -121.9291 North  Level Estimated

Login

Don't have an account? Register now (free) for customized features, flight alerts, and more!